Time;durP1;ratioP1;P1;durP2;ratioP2;P2;SDS_P1;SDS_P2;PMS_P1;PMS_P2;Temp;Humidity;BMP_temperature;BMP_pressure;BME280_temperature;BME280_humidity;BME280_pressure;Samples;Min_cycle;Max_cycle;Signal;HPM_P1;HPM_P2
2023/08/02 00:00:56;;;;;;;6.43;2.45;;;16.10;99.90;;;;;;6125515;23;20022;-79
2023/08/02 00:03:22;;;;;;;4.90;2.30;;;16.20;99.90;;;;;;6126724;23;20446;-79
2023/08/02 00:05:55;;;;;;;5.07;2.08;;;16.10;99.90;;;;;;6125610;23;20065;-79
2023/08/02 00:08:22;;;;;;;6.13;2.30;;;16.10;99.90;;;;;;6125640;23;20029;-79
2023/08/02 00:10:47;;;;;;;6.85;1.98;;;16.20;99.90;;;;;;6125304;23;20446;-79
2023/08/02 00:13:13;;;;;;;8.18;2.20;;;16.00;99.90;;;;;;6125647;23;20091;-79
2023/08/02 00:15:39;;;;;;;6.40;2.38;;;16.00;99.90;;;;;;6125583;23;20126;-79
2023/08/02 00:18:04;;;;;;;11.27;2.60;;;16.10;99.90;;;;;;6125468;23;20073;-80
2023/08/02 00:20:30;;;;;;;8.98;2.20;;;16.00;99.90;;;;;;6125641;23;20025;-79
2023/08/02 00:23:02;;;;;;;8.00;2.35;;;16.00;99.90;;;;;;6127317;23;20312;-79
2023/08/02 00:25:27;;;;;;;6.90;2.15;;;16.10;99.90;;;;;;6127506;23;20088;-79
2023/08/02 00:27:53;;;;;;;9.40;2.17;;;16.10;99.90;;;;;;6127438;23;20487;-79
2023/08/02 00:30:18;;;;;;;6.40;2.65;;;16.10;99.90;;;;;;6125385;23;20465;-79
2023/08/02 00:32:45;;;;;;;8.38;2.38;;;16.00;99.90;;;;;;6125359;23;20014;-79
2023/08/02 00:35:11;;;;;;;6.38;2.00;;;16.10;99.90;;;;;;6125364;23;20465;-79
2023/08/02 00:37:37;;;;;;;7.97;2.30;;;16.00;99.90;;;;;;6125203;23;20097;-79
2023/08/02 00:40:03;;;;;;;8.93;2.15;;;16.10;99.90;;;;;;6125473;23;20022;-79
2023/08/02 00:42:30;;;;;;;7.80;2.10;;;16.00;99.90;;;;;;6126917;23;20026;-79
2023/08/02 00:44:58;;;;;;;5.00;1.90;;;16.10;99.90;;;;;;6125275;23;20026;-79
2023/08/02 00:47:27;;;;;;;7.82;2.13;;;16.00;99.90;;;;;;6125342;23;20477;-79
2023/08/02 00:49:53;;;;;;;5.13;2.00;;;16.00;99.90;;;;;;6125241;23;20025;-79
2023/08/02 00:52:19;;;;;;;6.90;2.10;;;16.00;99.90;;;;;;6125019;23;20022;-79
2023/08/02 00:54:54;;;;;;;6.55;2.22;;;16.00;99.90;;;;;;6125083;23;20334;-80
2023/08/02 00:57:20;;;;;;;8.38;1.95;;;16.00;99.90;;;;;;6125127;23;20018;-79
2023/08/02 00:59:46;;;;;;;4.57;1.75;;;15.90;99.90;;;;;;6125324;23;20014;-79
2023/08/02 01:02:12;;;;;;;4.85;1.73;;;15.90;99.90;;;;;;6125190;23;20057;-79
2023/08/02 01:04:38;;;;;;;5.20;2.05;;;16.00;99.90;;;;;;6125049;23;20406;-79
2023/08/02 01:07:17;;;;;;;5.53;1.85;;;15.90;99.90;;;;;;6125101;23;20024;-79
2023/08/02 01:09:54;;;;;;;7.40;2.05;;;16.00;99.90;;;;;;6125141;23;20104;-80
2023/08/02 01:12:21;;;;;;;7.78;2.15;;;16.00;99.90;;;;;;6126957;23;20018;-79
2023/08/02 01:14:50;;;;;;;6.85;2.10;;;16.00;99.90;;;;;;6126499;23;20477;-79
2023/08/02 01:17:16;;;;;;;7.82;2.30;;;16.00;99.90;;;;;;6126551;23;20080;-80
2023/08/02 01:19:45;;;;;;;5.65;2.60;;;15.90;99.90;;;;;;6125067;23;20069;-80
2023/08/02 01:22:10;;;;;;;6.70;2.65;;;16.00;99.90;;;;;;6125041;23;20022;-80
2023/08/02 01:24:37;;;;;;;5.15;2.10;;;16.00;99.90;;;;;;6124584;23;20026;-79
2023/08/02 01:27:11;;;;;;;7.50;2.80;;;16.00;99.90;;;;;;6124756;23;20024;-79
2023/08/02 01:29:41;;;;;;;6.80;2.30;;;15.80;99.90;;;;;;6124843;23;20320;-80
2023/08/02 01:32:10;;;;;;;7.53;2.50;;;15.90;99.90;;;;;;6124897;23;20065;-79
2023/08/02 01:34:37;;;;;;;11.73;3.20;;;15.90;99.90;;;;;;6126958;23;20017;-79
2023/08/02 01:37:03;;;;;;;7.75;2.72;;;15.90;99.90;;;;;;6124978;23;20065;-79
2023/08/02 01:39:29;;;;;;;10.38;3.03;;;15.90;99.90;;;;;;6125074;23;20017;-79
2023/08/02 01:41:54;;;;;;;8.52;2.92;;;15.80;99.90;;;;;;6124956;23;20025;-79
2023/08/02 01:44:20;;;;;;;7.50;3.03;;;15.90;99.90;;;;;;6125057;23;20026;-80
2023/08/02 01:46:45;;;;;;;5.88;2.97;;;15.80;99.90;;;;;;6124926;23;20342;-80
2023/08/02 01:49:11;;;;;;;9.80;3.40;;;15.80;99.90;;;;;;6124870;23;20089;-80
2023/08/02 01:51:37;;;;;;;7.75;3.13;;;15.80;99.90;;;;;;6125045;23;20098;-80
2023/08/02 01:54:02;;;;;;;6.47;3.15;;;15.70;99.90;;;;;;6124895;23;20399;-80
2023/08/02 01:56:28;;;;;;;9.68;3.22;;;15.80;99.90;;;;;;6126393;23;20022;-80
2023/08/02 01:58:54;;;;;;;5.65;3.45;;;15.70;99.90;;;;;;6124975;23;20428;-80
2023/08/02 02:01:19;;;;;;;8.07;3.42;;;15.70;99.90;;;;;;6126892;23;20018;-80
2023/08/02 02:03:45;;;;;;;7.47;3.47;;;15.70;99.90;;;;;;6124829;23;20342;-80
2023/08/02 02:06:10;;;;;;;10.40;3.72;;;15.80;99.90;;;;;;6124886;23;20018;-80
2023/08/02 02:08:36;;;;;;;8.52;4.35;;;15.70;99.90;;;;;;6124986;23;20097;-80
2023/08/02 02:11:03;;;;;;;6.47;3.35;;;15.70;99.90;;;;;;6124898;23;20451;-80
2023/08/02 02:13:29;;;;;;;8.00;3.30;;;15.70;99.90;;;;;;6124984;23;20018;-80
2023/08/02 02:15:55;;;;;;;9.52;3.72;;;15.70;99.90;;;;;;6124944;23;20114;-80
2023/08/02 02:18:21;;;;;;;11.43;4.15;;;15.60;99.90;;;;;;6124772;23;20339;-79
2023/08/02 02:20:46;;;;;;;9.23;4.00;;;15.80;99.90;;;;;;6126761;23;20029;-79
2023/08/02 02:23:12;;;;;;;10.40;4.03;;;15.60;99.90;;;;;;6124787;23;20085;-79
2023/08/02 02:25:38;;;;;;;8.95;4.00;;;15.70;99.90;;;;;;6124896;23;20014;-80
2023/08/02 02:28:03;;;;;;;6.82;3.90;;;15.80;99.90;;;;;;6126326;23;20334;-79
2023/08/02 02:30:30;;;;;;;7.13;4.50;;;15.70;99.90;;;;;;6128567;23;20014;-80
2023/08/02 02:32:56;;;;;;;9.20;4.88;;;15.70;99.90;;;;;;6126477;23;20031;-79
2023/08/02 02:35:22;;;;;;;9.57;4.22;;;15.70;99.90;;;;;;6126409;23;20030;-80
2023/08/02 02:37:47;;;;;;;6.80;4.57;;;15.60;99.90;;;;;;6126575;23;20439;-80
2023/08/02 02:40:13;;;;;;;9.25;5.30;;;15.70;99.90;;;;;;6126525;23;20028;-78
2023/08/02 02:42:40;;;;;;;11.30;4.97;;;15.60;99.90;;;;;;6126280;23;20041;-80
2023/08/02 02:45:07;;;;;;;11.35;5.30;;;15.50;99.90;;;;;;6128365;23;20089;-80
2023/08/02 02:47:33;;;;;;;11.02;5.97;;;15.50;99.90;;;;;;6126266;23;20021;-79
2023/08/02 02:49:59;;;;;;;11.63;5.88;;;15.50;99.90;;;;;;6126454;23;20022;-80
2023/08/02 02:52:24;;;;;;;9.55;5.40;;;15.50;99.90;;;;;;6127942;23;20061;-80
2023/08/02 02:54:50;;;;;;;11.20;5.38;;;15.60;99.90;;;;;;6128279;23;20089;-80
2023/08/02 02:57:17;;;;;;;9.10;5.10;;;15.50;99.90;;;;;;6126033;23;20128;-79
2023/08/02 02:59:43;;;;;;;10.88;5.22;;;15.60;99.90;;;;;;6128195;23;20014;-80
2023/08/02 03:02:08;;;;;;;10.75;5.15;;;15.50;99.90;;;;;;6126197;23;20097;-79
2023/08/02 03:04:34;;;;;;;9.40;5.65;;;15.50;99.90;;;;;;6126239;23;20057;-79
2023/08/02 03:07:03;;;;;;;9.15;5.15;;;15.50;99.90;;;;;;6126924;23;20446;-79
2023/08/02 03:09:28;;;;;;;13.88;5.60;;;15.50;99.90;;;;;;6125950;23;20029;-79
2023/08/02 03:11:54;;;;;;;13.90;5.00;;;15.50;99.90;;;;;;6126194;23;20026;-80
2023/08/02 03:14:20;;;;;;;9.30;5.13;;;15.50;99.90;;;;;;6126468;23;20032;-80
2023/08/02 03:16:45;;;;;;;12.13;5.07;;;15.40;99.90;;;;;;6128025;23;20065;-80
2023/08/02 03:19:12;;;;;;;10.05;4.88;;;15.50;99.90;;;;;;6126108;23;20041;-80
2023/08/02 03:21:38;;;;;;;11.82;4.93;;;15.50;99.90;;;;;;6125998;23;20081;-80
2023/08/02 03:24:04;;;;;;;10.60;4.95;;;15.40;99.90;;;;;;6125736;23;20443;-80
2023/08/02 03:26:33;;;;;;;8.13;5.18;;;15.40;99.90;;;;;;6127941;23;20049;-80
2023/08/02 03:28:59;;;;;;;9.90;5.40;;;15.50;99.90;;;;;;6126030;23;20022;-80
2023/08/02 03:31:24;;;;;;;9.85;5.75;;;15.50;99.90;;;;;;6125833;23;20033;-80
2023/08/02 03:33:50;;;;;;;10.85;5.07;;;15.60;99.90;;;;;;6127574;23;20022;-79
2023/08/02 03:36:16;;;;;;;10.85;5.53;;;15.50;99.90;;;;;;6125876;23;20014;-80
2023/08/02 03:38:42;;;;;;;12.10;5.28;;;15.50;99.90;;;;;;6125722;23;20026;-80
2023/08/02 03:41:08;;;;;;;11.10;5.75;;;15.40;99.90;;;;;;6126344;23;20018;-79
2023/08/02 03:43:33;;;;;;;10.80;5.32;;;15.60;99.90;;;;;;6125303;23;20029;-80
2023/08/02 03:45:59;;;;;;;9.68;6.43;;;15.60;99.90;;;;;;6126917;23;20451;-80
2023/08/02 03:48:28;;;;;;;12.70;5.53;;;15.40;99.90;;;;;;6124549;23;20025;-80
2023/08/02 03:50:55;;;;;;;15.23;6.05;;;15.50;99.90;;;;;;6125643;23;20021;-80
2023/08/02 03:53:20;;;;;;;12.73;6.68;;;15.50;99.90;;;;;;6127628;23;20098;-80
2023/08/02 03:55:46;;;;;;;11.55;6.20;;;15.40;99.90;;;;;;6127283;23;20053;-80
2023/08/02 03:58:12;;;;;;;10.23;5.63;;;15.40;99.90;;;;;;6125251;23;20026;-80
2023/08/02 04:00:37;;;;;;;9.05;5.70;;;15.40;99.90;;;;;;6125671;23;20405;-80
2023/08/02 04:03:06;;;;;;;13.52;6.35;;;15.40;99.90;;;;;;6127460;23;20378;-80
2023/08/02 04:05:34;;;;;;;10.82;6.72;;;15.40;99.90;;;;;;6127184;23;20026;-80
2023/08/02 04:08:00;;;;;;;14.25;6.40;;;15.40;99.90;;;;;;6127508;23;20065;-79
2023/08/02 04:10:25;;;;;;;14.00;6.40;;;15.40;99.90;;;;;;6127165;23;20025;-80
2023/08/02 04:12:51;;;;;;;9.85;5.65;;;15.40;99.90;;;;;;6125488;23;20053;-80
2023/08/02 04:15:17;;;;;;;13.15;6.30;;;15.20;99.90;;;;;;6125502;23;20461;-79
2023/08/02 04:17:43;;;;;;;13.35;6.80;;;15.30;99.90;;;;;;6125490;23;20089;-80
2023/08/02 04:20:09;;;;;;;11.65;6.45;;;15.20;99.90;;;;;;6125732;23;20081;-79
2023/08/02 04:22:35;;;;;;;10.75;5.63;;;15.30;99.90;;;;;;6125276;23;20089;-80
2023/08/02 04:25:02;;;;;;;11.75;6.50;;;15.30;99.90;;;;;;6127236;23;20116;-80
2023/08/02 04:27:28;;;;;;;16.55;6.78;;;15.20;99.90;;;;;;6127192;23;20089;-79
2023/08/02 04:29:53;;;;;;;14.10;6.78;;;15.30;99.90;;;;;;6125298;23;20485;-80
2023/08/02 04:32:19;;;;;;;16.85;6.38;;;15.20;99.90;;;;;;6125261;23;20060;-79
2023/08/02 04:34:45;;;;;;;15.95;6.30;;;15.20;99.90;;;;;;6126946;23;20064;-79
2023/08/02 04:37:12;;;;;;;19.35;7.05;;;15.20;99.90;;;;;;6125582;23;20026;-79
2023/08/02 04:39:41;;;;;;;12.43;6.82;;;15.20;99.90;;;;;;6126763;23;20025;-79
2023/08/02 04:42:06;;;;;;;12.55;7.03;;;15.20;99.90;;;;;;6126715;23;20021;-79
2023/08/02 04:44:32;;;;;;;15.65;6.65;;;15.30;99.90;;;;;;6126880;23;20060;-80
2023/08/02 04:46:58;;;;;;;17.42;7.22;;;15.20;99.90;;;;;;6125073;23;20335;-81
2023/08/02 04:49:23;;;;;;;14.13;6.95;;;15.20;99.90;;;;;;6124790;23;20022;-79
2023/08/02 04:51:49;;;;;;;16.45;7.05;;;15.30;99.90;;;;;;6127004;23;20469;-80
2023/08/02 04:54:18;;;;;;;19.27;7.00;;;15.20;99.90;;;;;;6125207;23;20021;-79
2023/08/02 04:56:45;;;;;;;15.88;7.28;;;15.30;99.90;;;;;;6126303;23;20029;-80
2023/08/02 04:59:12;;;;;;;17.45;6.53;;;15.30;99.90;;;;;;6127001;23;20331;-79
2023/08/02 05:01:38;;;;;;;15.25;6.53;;;15.20;99.90;;;;;;6127001;23;20022;-80
2023/08/02 05:04:09;;;;;;;18.42;7.22;;;15.20;99.90;;;;;;6124998;23;20028;-80
2023/08/02 05:06:35;;;;;;;18.80;7.15;;;15.20;99.90;;;;;;6126848;23;20025;-80
2023/08/02 05:09:04;;;;;;;16.27;6.32;;;15.30;99.90;;;;;;6127006;23;20018;-80
2023/08/02 05:11:31;;;;;;;20.15;7.40;;;15.30;99.90;;;;;;6126949;23;20010;-80
2023/08/02 05:13:56;;;;;;;22.15;7.32;;;15.30;99.90;;;;;;6126633;23;20021;-79
2023/08/02 05:16:22;;;;;;;17.58;6.32;;;15.30;99.90;;;;;;6126368;23;20429;-79
2023/08/02 05:18:47;;;;;;;18.65;7.45;;;15.30;99.90;;;;;;6125076;23;20458;-80
2023/08/02 05:21:14;;;;;;;17.30;7.05;;;15.30;99.90;;;;;;6124980;23;20014;-80
2023/08/02 05:23:40;;;;;;;20.30;6.72;;;15.30;99.90;;;;;;6126358;23;20052;-80
2023/08/02 05:26:07;;;;;;;18.00;6.80;;;15.40;99.90;;;;;;6126869;23;20021;-80
2023/08/02 05:28:33;;;;;;;17.17;7.00;;;15.30;99.90;;;;;;6126647;23;20096;-80
2023/08/02 05:30:59;;;;;;;16.05;7.78;;;15.30;99.90;;;;;;6124883;23;20025;-80
2023/08/02 05:33:25;;;;;;;13.85;6.75;;;15.30;99.90;;;;;;6126495;23;20022;-80
2023/08/02 05:35:51;;;;;;;16.95;7.25;;;15.20;99.90;;;;;;6124902;23;20018;-79
2023/08/02 05:38:17;;;;;;;18.42;7.53;;;15.30;99.90;;;;;;6124908;23;20014;-79
2023/08/02 05:40:43;;;;;;;16.08;6.93;;;15.30;99.90;;;;;;6126981;23;20018;-79
2023/08/02 05:43:09;;;;;;;23.38;7.47;;;15.40;99.90;;;;;;6126562;23;20093;-79
2023/08/02 05:45:34;;;;;;;12.75;6.78;;;15.40;99.90;;;;;;6125029;23;20029;-79
2023/08/02 05:48:00;;;;;;;16.77;7.72;;;15.40;99.90;;;;;;6124908;23;20451;-79
2023/08/02 05:50:28;;;;;;;19.13;7.78;;;15.50;99.90;;;;;;6124819;23;20025;-79
2023/08/02 05:52:56;;;;;;;16.10;8.00;;;15.50;99.90;;;;;;6126290;23;20018;-79
2023/08/02 05:55:21;;;;;;;15.60;7.75;;;15.60;99.90;;;;;;6125086;23;20022;-78
2023/08/02 05:57:49;;;;;;;14.63;7.60;;;15.40;99.90;;;;;;6126289;23;20010;-78
2023/08/02 06:00:16;;;;;;;18.75;8.20;;;15.50;99.90;;;;;;6124738;23;20025;-78
2023/08/02 06:02:42;;;;;;;15.73;8.00;;;15.60;99.90;;;;;;6128483;23;20021;-79
2023/08/02 06:05:08;;;;;;;16.83;8.18;;;15.50;99.90;;;;;;6126881;23;20022;-79
2023/08/02 06:07:34;;;;;;;14.48;7.72;;;15.60;99.90;;;;;;6126699;23;20050;-79
2023/08/02 06:10:02;;;;;;;14.15;7.85;;;15.60;99.90;;;;;;6126588;23;20026;-78
2023/08/02 06:12:28;;;;;;;17.75;8.00;;;15.60;99.90;;;;;;6126565;23;20678;-78
2023/08/02 06:14:53;;;;;;;13.80;8.05;;;15.60;99.90;;;;;;6125447;23;20450;-78
2023/08/02 06:17:19;;;;;;;13.57;8.40;;;15.70;99.90;;;;;;6126309;23;20022;-78
2023/08/02 06:19:47;;;;;;;15.48;7.82;;;15.70;99.90;;;;;;6126418;23;20022;-77
2023/08/02 06:22:15;;;;;;;16.13;8.30;;;15.80;99.90;;;;;;6126236;23;20025;-76
2023/08/02 06:24:42;;;;;;;13.73;7.60;;;15.70;99.90;;;;;;6126245;23;20026;-77
2023/08/02 06:27:08;;;;;;;16.60;8.00;;;15.80;99.90;;;;;;6126321;23;20026;-77
2023/08/02 06:29:33;;;;;;;15.35;7.63;;;15.90;99.90;;;;;;6126270;23;20022;-76
2023/08/02 06:31:59;;;;;;;16.05;8.27;;;15.90;99.90;;;;;;6125946;23;20021;-77
2023/08/02 06:34:24;;;;;;;16.55;8.70;;;15.90;99.90;;;;;;6127892;23;20025;-77
2023/08/02 06:36:50;;;;;;;16.08;7.68;;;16.00;99.90;;;;;;6125811;23;20013;-77
2023/08/02 06:39:16;;;;;;;20.73;8.18;;;16.00;99.90;;;;;;6127896;23;20057;-76
2023/08/02 06:41:42;;;;;;;14.15;7.65;;;16.00;99.90;;;;;;6126159;23;20014;-78
2023/08/02 06:44:07;;;;;;;12.63;7.75;;;15.80;99.90;;;;;;6126225;23;20073;-78
2023/08/02 06:46:36;;;;;;;15.85;8.23;;;15.90;99.90;;;;;;6128045;23;20073;-79
2023/08/02 06:49:04;;;;;;;15.65;7.68;;;15.90;99.90;;;;;;6126038;23;20130;-79
2023/08/02 06:51:30;;;;;;;15.77;8.13;;;16.00;99.90;;;;;;6127591;23;20026;-78
2023/08/02 06:54:02;;;;;;;17.40;8.60;;;16.00;99.90;;;;;;6127419;23;20018;-79
2023/08/02 06:56:32;;;;;;;17.13;8.52;;;15.90;99.90;;;;;;6134717;23;20029;-79
2023/08/02 06:58:58;;;;;;;15.75;8.25;;;15.90;99.90;;;;;;6157304;23;20048;-76
2023/08/02 07:01:24;;;;;;;16.83;9.00;;;15.90;99.90;;;;;;6130954;23;20064;-77
2023/08/02 07:03:50;;;;;;;14.23;8.05;;;15.90;99.90;;;;;;6130699;23;20429;-77
2023/08/02 07:06:17;;;;;;;13.43;7.78;;;16.00;99.90;;;;;;6130637;23;20021;-78
2023/08/02 07:08:44;;;;;;;14.65;8.75;;;16.00;99.90;;;;;;6130445;23;20052;-77
2023/08/02 07:11:09;;;;;;;15.00;9.02;;;16.00;99.90;;;;;;6154687;23;20450;-79
2023/08/02 07:13:37;;;;;;;15.02;10.30;;;16.00;99.90;;;;;;6156172;23;20076;-78
2023/08/02 07:16:06;;;;;;;16.33;8.48;;;15.90;99.90;;;;;;6130313;23;20044;-79
2023/08/02 07:18:39;;;;;;;15.45;8.77;;;15.90;99.90;;;;;;6130775;23;20017;-77
2023/08/02 07:21:09;;;;;;;18.35;9.40;;;15.90;99.90;;;;;;6130368;23;20017;-78
2023/08/02 07:23:36;;;;;;;18.20;9.63;;;15.80;99.90;;;;;;6130590;23;20535;-78
2023/08/02 07:26:03;;;;;;;16.00;9.20;;;15.90;99.90;;;;;;6130234;23;20466;-78
2023/08/02 07:28:28;;;;;;;19.42;9.27;;;15.90;99.90;;;;;;6156850;23;20022;-79
2023/08/02 07:31:08;;;;;;;17.20;9.52;;;15.80;99.90;;;;;;6130291;23;20014;-79
2023/08/02 07:33:34;;;;;;;14.57;9.35;;;16.00;99.90;;;;;;6130582;23;20075;-80
2023/08/02 07:35:59;;;;;;;16.42;10.00;;;16.00;99.90;;;;;;6130398;23;20104;-79
2023/08/02 07:38:31;;;;;;;16.80;8.95;;;16.00;99.90;;;;;;6156712;23;20025;-78
2023/08/02 07:40:57;;;;;;;19.05;11.55;;;16.00;99.90;;;;;;6130542;23;20088;-79
2023/08/02 07:43:23;;;;;;;20.85;10.18;;;16.00;99.90;;;;;;6130375;23;20041;-79
2023/08/02 07:45:51;;;;;;;16.35;10.45;;;16.00;99.90;;;;;;6130564;23;20033;-77
2023/08/02 07:48:16;;;;;;;16.17;9.30;;;16.00;99.90;;;;;;6130363;23;20017;-77
2023/08/02 07:50:42;;;;;;;19.63;9.90;;;16.10;99.90;;;;;;6130338;23;20021;-79
2023/08/02 07:53:08;;;;;;;16.67;10.15;;;16.10;99.90;;;;;;6130542;23;20022;-78
2023/08/02 07:55:33;;;;;;;14.88;10.15;;;16.10;99.90;;;;;;6156725;23;20024;-78
2023/08/02 07:57:59;;;;;;;16.33;9.75;;;16.10;99.90;;;;;;6156283;23;20020;-78
2023/08/02 08:00:25;;;;;;;16.90;10.18;;;16.10;99.90;;;;;;6130387;23;20086;-78
2023/08/02 08:02:51;;;;;;;14.32;9.23;;;16.00;99.90;;;;;;6130258;23;20049;-80
2023/08/02 08:05:17;;;;;;;12.90;9.70;;;16.10;99.90;;;;;;6130064;23;20040;-78
2023/08/02 08:07:42;;;;;;;13.25;9.25;;;16.10;99.90;;;;;;6129102;23;20342;-79
2023/08/02 08:10:08;;;;;;;13.68;9.57;;;16.10;99.90;;;;;;6127874;23;20025;-79
2023/08/02 08:12:36;;;;;;;13.95;9.00;;;16.10;99.90;;;;;;6128455;23;20018;-78
2023/08/02 08:15:08;;;;;;;15.98;8.85;;;16.10;99.90;;;;;;6119745;23;20737;-80
2023/08/02 08:17:34;;;;;;;14.23;8.63;;;16.10;99.90;;;;;;6129985;23;20096;-78
2023/08/02 08:19:59;;;;;;;16.80;8.50;;;16.00;99.90;;;;;;6129816;23;20049;-78
2023/08/02 08:22:29;;;;;;;13.95;7.78;;;16.10;99.90;;;;;;6130187;23;20025;-78
2023/08/02 08:24:55;;;;;;;13.65;8.48;;;16.10;99.90;;;;;;6129446;23;20021;-78
2023/08/02 08:27:21;;;;;;;13.75;6.82;;;16.00;99.90;;;;;;6130264;23;20017;-78
2023/08/02 08:29:47;;;;;;;10.45;6.28;;;16.10;99.90;;;;;;6155813;23;20067;-84
2023/08/02 08:32:12;;;;;;;10.95;6.32;;;16.10;99.90;;;;;;6128405;23;20014;-79
2023/08/02 08:34:38;;;;;;;8.93;6.43;;;16.20;99.90;;;;;;6154501;23;20017;-79
2023/08/02 08:37:03;;;;;;;11.27;6.60;;;16.10;99.90;;;;;;6152673;23;20018;-78
2023/08/02 08:39:29;;;;;;;15.50;6.63;;;16.20;99.90;;;;;;6155548;23;20018;-79
2023/08/02 08:41:57;;;;;;;15.07;5.93;;;16.10;99.90;;;;;;6155918;23;20043;-78
2023/08/02 08:44:23;;;;;;;11.93;5.22;;;16.10;99.90;;;;;;6128525;23;20064;-79
2023/08/02 08:46:50;;;;;;;10.00;5.22;;;16.20;99.90;;;;;;6129520;23;20013;-84
2023/08/02 08:49:16;;;;;;;12.73;5.65;;;16.10;99.90;;;;;;6155936;23;20025;-78
2023/08/02 08:51:45;;;;;;;9.50;4.88;;;16.00;99.90;;;;;;6130025;23;20044;-78
2023/08/02 08:54:25;;;;;;;10.07;5.13;;;16.00;99.90;;;;;;6129239;23;20059;-80
2023/08/02 08:56:52;;;;;;;10.02;5.03;;;16.00;99.90;;;;;;6128889;23;20326;-80
2023/08/02 08:59:19;;;;;;;9.88;5.50;;;16.00;99.90;;;;;;6128305;23;20332;-79
2023/08/02 09:01:48;;;;;;;7.50;4.55;;;16.00;99.90;;;;;;6129398;23;20018;-79
2023/08/02 09:04:14;;;;;;;9.88;4.47;;;16.00;99.90;;;;;;6155484;23;20017;-78
2023/08/02 09:06:42;;;;;;;8.73;4.32;;;15.90;99.90;;;;;;6129391;23;20025;-79
2023/08/02 09:09:07;;;;;;;11.00;4.15;;;15.80;99.90;;;;;;6129491;23;20354;-80
2023/08/02 09:11:35;;;;;;;11.45;4.40;;;15.80;99.90;;;;;;6129583;23;20101;-79
2023/08/02 09:14:17;;;;;;;15.18;5.80;;;15.60;99.90;;;;;;6129502;23;20389;-79
2023/08/02 09:16:58;;;;;;;9.50;4.95;;;15.70;99.90;;;;;;6129437;23;20104;-78
2023/08/02 09:19:28;;;;;;;13.27;5.30;;;15.60;99.90;;;;;;6155417;23;20056;-79
2023/08/02 09:22:14;;;;;;;11.63;4.47;;;15.60;99.90;;;;;;6129772;23;20024;-78
2023/08/02 09:24:42;;;;;;;10.10;4.38;;;15.60;99.90;;;;;;6129062;23;20025;-79
2023/08/02 09:27:14;;;;;;;8.98;4.60;;;15.70;99.90;;;;;;6155940;23;20018;-78
2023/08/02 09:29:48;;;;;;;16.27;5.05;;;15.70;99.90;;;;;;6129182;23;20438;-78
2023/08/02 09:32:18;;;;;;;11.38;4.75;;;15.60;99.90;;;;;;6155748;23;20018;-79
2023/08/02 09:34:53;;;;;;;11.25;4.95;;;15.60;99.90;;;;;;6129419;23;20390;-78
2023/08/02 09:37:33;;;;;;;8.27;4.72;;;15.60;99.90;;;;;;6130681;23;20021;-78
2023/08/02 09:40:09;;;;;;;10.90;5.15;;;15.50;99.90;;;;;;6130143;23;20033;-78
2023/08/02 09:42:38;;;;;;;7.65;4.00;;;15.70;99.90;;;;;;6157007;23;20036;-76
2023/08/02 09:45:10;;;;;;;8.75;4.63;;;15.60;99.90;;;;;;6158088;23;20028;-77
2023/08/02 09:47:36;;;;;;;8.88;4.55;;;15.60;99.90;;;;;;6157226;23;20017;-78
2023/08/02 09:50:16;;;;;;;9.88;4.90;;;15.60;99.90;;;;;;6157711;23;20060;-76
2023/08/02 09:52:41;;;;;;;8.05;3.88;;;15.60;99.90;;;;;;6131557;23;20096;-77
2023/08/02 09:55:09;;;;;;;7.47;3.72;;;15.50;99.90;;;;;;6131811;23;20049;-77
2023/08/02 09:57:36;;;;;;;10.18;3.85;;;15.40;99.90;;;;;;6126559;23;20018;-77
2023/08/02 10:00:06;;;;;;;7.05;4.28;;;15.50;99.90;;;;;;6126387;23;20468;-76
2023/08/02 10:02:35;;;;;;;9.50;4.35;;;15.50;99.90;;;;;;6126542;23;20036;-77
2023/08/02 10:05:02;;;;;;;10.32;4.60;;;15.60;99.90;;;;;;6126371;23;20513;-77
2023/08/02 10:07:34;;;;;;;8.13;4.35;;;15.60;99.90;;;;;;6128267;23;20084;-78
2023/08/02 10:10:05;;;;;;;7.00;4.35;;;15.60;99.90;;;;;;6126412;23;20026;-74
2023/08/02 10:12:37;;;;;;;9.70;4.65;;;15.50;99.90;;;;;;6126373;23;20346;-75
2023/08/02 10:15:03;;;;;;;7.77;4.53;;;15.60;99.90;;;;;;6126581;23;20014;-75
2023/08/02 10:17:31;;;;;;;9.40;5.70;;;15.60;99.90;;;;;;6126292;23;20390;-78
2023/08/02 10:19:59;;;;;;;10.35;5.40;;;15.60;99.90;;;;;;6126334;23;20014;-74
2023/08/02 10:22:25;;;;;;;8.35;5.03;;;15.60;99.90;;;;;;6126299;23;20112;-78
2023/08/02 10:24:51;;;;;;;10.20;4.90;;;15.70;99.90;;;;;;6126205;23;20018;-77
2023/08/02 10:27:19;;;;;;;9.88;4.90;;;15.70;99.90;;;;;;6126318;23;20346;-78
2023/08/02 10:29:46;;;;;;;9.10;5.55;;;15.70;99.90;;;;;;6125999;23;20045;-78
2023/08/02 10:32:14;;;;;;;7.88;5.05;;;15.60;99.90;;;;;;6126123;23;20057;-75
2023/08/02 10:34:40;;;;;;;7.72;5.13;;;15.70;99.90;;;;;;6125934;23;20018;-77
2023/08/02 10:37:06;;;;;;;9.40;5.57;;;15.70;99.90;;;;;;6126275;23;20347;-75
2023/08/02 10:39:43;;;;;;;8.88;5.35;;;15.70;99.90;;;;;;6128017;23;20041;-78
2023/08/02 10:42:09;;;;;;;8.38;5.38;;;15.80;99.90;;;;;;6126093;23;20092;-75
2023/08/02 10:44:35;;;;;;;8.90;5.38;;;15.80;99.90;;;;;;6126113;23;20053;-75
2023/08/02 10:47:29;;;;;;;7.40;5.20;;;15.90;99.90;;;;;;6125962;23;20018;-84
2023/08/02 10:49:55;;;;;;;9.27;5.40;;;16.00;99.90;;;;;;6126036;23;20022;-77
2023/08/02 10:52:23;;;;;;;9.70;5.75;;;15.90;99.90;;;;;;6127728;23;20025;-75
2023/08/02 10:55:05;;;;;;;8.60;5.18;;;15.90;99.90;;;;;;6125895;23;20079;-75
2023/08/02 10:57:31;;;;;;;8.52;5.15;;;15.80;99.90;;;;;;6127724;23;20014;-77
2023/08/02 10:59:57;;;;;;;8.02;5.43;;;16.00;99.90;;;;;;6125908;23;20099;-79
2023/08/02 11:02:25;;;;;;;7.78;5.82;;;15.90;99.90;;;;;;6126003;23;20014;-75
2023/08/02 11:04:53;;;;;;;7.15;4.85;;;16.00;99.90;;;;;;6127751;23;20018;-80
2023/08/02 11:07:22;;;;;;;6.57;5.35;;;16.00;99.90;;;;;;6127899;23;20018;-76
2023/08/02 11:09:54;;;;;;;7.07;4.63;;;16.00;99.90;;;;;;6125934;23;20022;-77
2023/08/02 11:12:22;;;;;;;7.70;4.25;;;16.10;99.90;;;;;;6125858;23;20014;-79
2023/08/02 11:14:52;;;;;;;7.20;4.38;;;16.00;99.90;;;;;;6125800;23;20025;-75
2023/08/02 11:17:25;;;;;;;5.95;4.20;;;15.80;99.90;;;;;;6125849;23;20049;-76
2023/08/02 11:19:53;;;;;;;7.10;4.18;;;15.90;99.90;;;;;;6127591;23;20018;-76
2023/08/02 11:22:19;;;;;;;6.00;3.50;;;16.00;99.90;;;;;;6125426;23;20018;-74
2023/08/02 11:24:53;;;;;;;4.57;3.55;;;16.00;99.90;;;;;;6127667;23;20097;-75
2023/08/02 11:27:24;;;;;;;5.68;3.55;;;16.00;99.90;;;;;;6127633;23;20010;-77
2023/08/02 11:30:00;;;;;;;4.80;3.08;;;16.00;99.90;;;;;;6125861;23;20108;-75
2023/08/02 11:32:27;;;;;;;4.97;3.10;;;15.90;99.90;;;;;;6125660;23;20450;-77
2023/08/02 11:34:53;;;;;;;4.82;3.28;;;16.00;99.90;;;;;;6125510;23;20045;-77
2023/08/02 11:37:19;;;;;;;4.13;2.45;;;16.00;99.90;;;;;;6125467;23;20106;-75
2023/08/02 11:39:56;;;;;;;5.03;2.72;;;16.00;99.90;;;;;;6127366;23;20037;-76
2023/08/02 11:42:23;;;;;;;4.63;2.67;;;16.10;99.90;;;;;;6125435;23;20030;-76
2023/08/02 11:44:49;;;;;;;6.93;2.97;;;16.10;99.90;;;;;;6127211;23;20040;-84
2023/08/02 11:47:20;;;;;;;4.60;2.65;;;16.10;99.90;;;;;;6127381;23;20084;-89
2023/08/02 11:49:59;;;;;;;3.33;2.20;;;16.10;99.90;;;;;;6127333;23;20026;-74
2023/08/02 11:52:29;;;;;;;3.40;2.40;;;16.10;99.90;;;;;;6127429;23;20024;-74
2023/08/02 11:54:55;;;;;;;4.00;2.42;;;16.10;99.90;;;;;;6127111;23;20010;-77
2023/08/02 11:57:27;;;;;;;4.22;2.22;;;16.00;99.90;;;;;;6124398;23;20018;-78
2023/08/02 11:59:59;;;;;;;3.60;2.40;;;16.40;99.90;;;;;;6127004;23;20092;-78
2023/08/02 12:02:30;;;;;;;3.50;2.03;;;16.20;99.90;;;;;;6125317;23;20051;-77
2023/08/02 12:04:56;;;;;;;3.95;2.10;;;16.40;99.90;;;;;;6125247;23;20254;-78
2023/08/02 12:07:30;;;;;;;2.83;1.73;;;16.80;99.90;;;;;;6127274;23;20014;-80
2023/08/02 12:09:56;;;;;;;3.40;1.58;;;16.80;99.90;;;;;;6127248;23;20018;-78
2023/08/02 12:12:29;;;;;;;3.65;1.60;;;16.80;99.90;;;;;;6125020;23;20037;-79
2023/08/02 12:14:54;;;;;;;2.70;1.58;;;16.90;99.90;;;;;;6124692;23;20029;-80
2023/08/02 12:17:21;;;;;;;2.80;1.65;;;16.80;99.90;;;;;;6125066;23;20045;-80
2023/08/02 12:19:48;;;;;;;3.42;1.85;;;16.80;99.90;;;;;;6125651;23;20033;-82
2023/08/02 12:22:15;;;;;;;2.67;1.77;;;17.10;99.90;;;;;;6127166;23;20060;-79
2023/08/02 12:24:41;;;;;;;2.90;1.80;;;17.20;99.90;;;;;;6126408;23;20025;-78
2023/08/02 12:27:19;;;;;;;3.33;2.00;;;17.30;99.90;;;;;;6125119;23;20026;-77
2023/08/02 12:29:47;;;;;;;3.47;1.80;;;17.20;99.90;;;;;;6127052;23;20068;-79
2023/08/02 12:32:26;;;;;;;3.65;2.00;;;17.30;99.90;;;;;;6126321;23;20018;-78
2023/08/02 12:34:52;;;;;;;3.60;2.10;;;17.30;99.90;;;;;;6124989;23;20024;-77
2023/08/02 12:37:18;;;;;;;2.70;2.00;;;17.20;99.90;;;;;;6125281;23;20100;-80
2023/08/02 12:39:44;;;;;;;3.90;2.47;;;17.30;99.90;;;;;;6124797;23;20081;-79
2023/08/02 12:42:10;;;;;;;4.45;2.42;;;17.30;99.90;;;;;;6124661;23;20466;-76